Time;durP1;ratioP1;P1;durP2;ratioP2;P2;SDS_P1;SDS_P2;PMS_P1;PMS_P2;Temp;Humidity;BMP_temperature;BMP_pressure;BME280_temperature;BME280_humidity;BME280_pressure;Samples;Min_cycle;Max_cycle;Signal;HPM_P1;HPM_P2
2024/03/06 00:02:05;;;;;;;5.80;3.03;;;5.40;99.90;;;;;;5015756;28;20022;-71
2024/03/06 00:04:31;;;;;;;5.90;2.85;;;5.50;99.90;;;;;;4999709;28;20029;-70
2024/03/06 00:06:57;;;;;;;7.70;2.80;;;5.50;99.90;;;;;;4998996;28;20034;-71
2024/03/06 00:09:23;;;;;;;5.93;3.28;;;5.40;99.90;;;;;;5002876;28;20482;-69
2024/03/06 00:11:50;;;;;;;5.22;2.42;;;5.50;99.90;;;;;;4995016;28;20084;-70
2024/03/06 00:14:16;;;;;;;6.85;2.83;;;5.50;99.90;;;;;;4999879;28;20176;-70
2024/03/06 00:16:45;;;;;;;6.13;3.25;;;5.50;99.90;;;;;;5008942;28;20077;-70
2024/03/06 00:19:11;;;;;;;6.47;2.92;;;5.50;99.90;;;;;;5006834;28;20105;-70
2024/03/06 00:21:36;;;;;;;5.75;2.95;;;5.50;99.90;;;;;;5009060;28;20836;-70
2024/03/06 00:24:03;;;;;;;5.38;2.72;;;5.50;99.90;;;;;;4995398;28;20045;-70
2024/03/06 00:26:29;;;;;;;6.18;2.45;;;5.50;99.90;;;;;;4981485;28;20498;-70
2024/03/06 00:28:55;;;;;;;7.38;2.72;;;5.50;99.90;;;;;;5003800;28;20035;-70
2024/03/06 00:31:20;;;;;;;4.95;3.00;;;5.50;99.90;;;;;;5007261;28;20037;-70
2024/03/06 00:33:46;;;;;;;5.72;3.17;;;5.50;99.90;;;;;;5011968;28;20022;-68
2024/03/06 00:36:12;;;;;;;2.90;2.17;;;5.50;99.90;;;;;;5014161;28;20026;-68
2024/03/06 00:38:37;;;;;;;5.05;2.58;;;5.50;99.90;;;;;;5013065;28;20041;-70
2024/03/06 00:41:03;;;;;;;5.75;2.40;;;5.40;99.90;;;;;;5013926;28;20459;-70
2024/03/06 00:43:29;;;;;;;4.63;2.50;;;5.40;99.90;;;;;;5013757;28;20125;-70
2024/03/06 00:45:54;;;;;;;3.63;1.95;;;5.40;99.90;;;;;;5013722;28;20042;-70
2024/03/06 00:48:20;;;;;;;4.20;2.38;;;5.50;99.90;;;;;;5001991;28;20026;-70
2024/03/06 00:50:46;;;;;;;4.47;2.30;;;5.40;99.90;;;;;;4997938;28;20053;-70
2024/03/06 00:53:12;;;;;;;5.13;2.25;;;5.40;99.90;;;;;;5013888;28;20037;-70
2024/03/06 00:55:37;;;;;;;2.63;1.92;;;5.40;99.90;;;;;;5007114;28;20053;-70
2024/03/06 00:58:03;;;;;;;4.13;2.00;;;5.30;99.90;;;;;;5003352;28;20495;-70
2024/03/06 01:00:29;;;;;;;3.88;2.08;;;5.30;99.90;;;;;;4994613;28;20031;-70
2024/03/06 01:02:55;;;;;;;3.97;2.25;;;5.30;99.90;;;;;;4994592;28;20029;-70
2024/03/06 01:05:21;;;;;;;4.88;2.58;;;5.30;99.90;;;;;;4995393;28;20033;-70
2024/03/06 01:07:46;;;;;;;6.28;2.35;;;5.20;99.90;;;;;;5013459;28;20026;-70
2024/03/06 01:10:12;;;;;;;2.53;2.13;;;5.20;99.90;;;;;;5013245;28;20359;-70
2024/03/06 01:12:38;;;;;;;5.35;2.50;;;5.20;99.90;;;;;;5013285;28;20029;-70
2024/03/06 01:15:04;;;;;;;5.70;2.08;;;5.20;99.90;;;;;;5013476;28;20105;-70
2024/03/06 01:17:30;;;;;;;5.13;2.40;;;5.20;99.90;;;;;;5012237;28;20073;-70
2024/03/06 01:19:56;;;;;;;5.20;2.15;;;5.20;99.90;;;;;;5013393;28;20026;-70
2024/03/06 01:22:21;;;;;;;6.32;2.40;;;5.20;99.90;;;;;;5011798;28;20052;-70
2024/03/06 01:24:48;;;;;;;4.93;2.55;;;5.20;99.90;;;;;;4995839;28;20034;-70
2024/03/06 01:27:17;;;;;;;3.08;2.42;;;5.10;99.90;;;;;;5003357;28;20018;-70
2024/03/06 01:29:43;;;;;;;3.83;2.25;;;5.20;99.90;;;;;;5008075;28;20104;-70
2024/03/06 01:32:10;;;;;;;3.75;2.28;;;5.10;99.90;;;;;;5023589;28;20482;-70
2024/03/06 01:34:35;;;;;;;4.28;1.90;;;5.10;99.90;;;;;;5022846;28;20025;-70
2024/03/06 01:37:01;;;;;;;3.58;2.30;;;5.10;99.90;;;;;;5019992;28;20459;-70
2024/03/06 01:39:27;;;;;;;3.22;2.15;;;5.10;99.90;;;;;;5019914;28;20033;-70
2024/03/06 01:41:53;;;;;;;4.75;2.28;;;5.00;99.90;;;;;;5021682;28;20360;-70
2024/03/06 01:44:19;;;;;;;8.65;2.58;;;5.00;99.90;;;;;;5022312;28;20104;-70
2024/03/06 01:46:45;;;;;;;4.80;2.47;;;5.00;99.90;;;;;;5021483;28;20039;-70
2024/03/06 01:49:14;;;;;;;5.75;2.42;;;5.00;99.90;;;;;;5022917;28;20506;-69
2024/03/06 01:51:47;;;;;;;3.73;2.73;;;5.10;99.90;;;;;;5019169;28;20018;-69
2024/03/06 01:54:13;;;;;;;5.28;2.20;;;5.10;99.90;;;;;;5021679;28;20108;-70
2024/03/06 01:56:45;;;;;;;3.50;2.42;;;5.10;99.90;;;;;;5018109;28;20650;-71
2024/03/06 01:59:18;;;;;;;5.60;2.20;;;5.10;99.90;;;;;;5020384;28;20348;-70
2024/03/06 02:01:45;;;;;;;3.97;2.70;;;5.10;99.90;;;;;;5022181;28;20017;-69
2024/03/06 02:04:12;;;;;;;6.93;3.13;;;5.10;99.90;;;;;;5005897;28;20402;-71
2024/03/06 02:06:41;;;;;;;4.03;1.98;;;5.10;99.90;;;;;;5015241;28;20030;-70
2024/03/06 02:09:09;;;;;;;5.43;2.80;;;5.10;99.90;;;;;;5023246;28;20064;-70
2024/03/06 02:11:35;;;;;;;4.47;2.90;;;5.10;99.90;;;;;;5022188;28;20276;-69
2024/03/06 02:14:01;;;;;;;5.50;2.70;;;5.10;99.90;;;;;;5006640;28;20034;-70
2024/03/06 02:16:27;;;;;;;7.55;4.00;;;5.10;99.90;;;;;;5015573;28;20026;-70
2024/03/06 02:18:53;;;;;;;7.30;3.88;;;5.10;99.90;;;;;;5020802;28;20386;-70
2024/03/06 02:21:23;;;;;;;10.23;4.07;;;5.10;99.90;;;;;;5020832;28;20096;-69
2024/03/06 02:23:52;;;;;;;11.13;4.97;;;5.20;99.90;;;;;;5020891;28;20026;-69
2024/03/06 02:26:19;;;;;;;12.97;5.67;;;5.20;99.90;;;;;;5015955;28;20112;-70
2024/03/06 02:28:53;;;;;;;10.38;6.18;;;5.20;99.90;;;;;;5022040;28;20502;-70
2024/03/06 02:31:20;;;;;;;13.85;7.43;;;5.20;99.90;;;;;;5016892;28;20079;-70
2024/03/06 02:33:47;;;;;;;11.60;7.53;;;5.10;99.90;;;;;;5020656;28;20447;-70
2024/03/06 02:36:13;;;;;;;14.48;8.93;;;5.10;99.90;;;;;;5000452;28;20124;-70
2024/03/06 02:38:39;;;;;;;18.23;11.00;;;5.10;99.90;;;;;;5022433;28;20021;-70
2024/03/06 02:41:06;;;;;;;21.20;11.50;;;5.10;99.90;;;;;;5022086;28;20022;-70
2024/03/06 02:43:35;;;;;;;19.33;11.00;;;5.10;99.90;;;;;;5020502;28;20354;-69
2024/03/06 02:46:00;;;;;;;19.02;12.13;;;5.10;99.90;;;;;;5016985;28;20044;-69
2024/03/06 02:48:26;;;;;;;20.17;12.07;;;5.10;99.90;;;;;;5019810;28;20014;-69
2024/03/06 02:50:52;;;;;;;19.50;11.10;;;5.10;99.90;;;;;;5019258;28;20343;-70
2024/03/06 02:53:18;;;;;;;19.65;10.75;;;5.00;99.90;;;;;;5016942;28;20029;-70
2024/03/06 02:55:44;;;;;;;18.23;11.02;;;5.00;99.90;;;;;;5021168;28;20029;-70
2024/03/06 02:58:09;;;;;;;17.67;11.23;;;5.00;99.90;;;;;;5019924;28;20063;-70
2024/03/06 03:00:35;;;;;;;16.83;11.23;;;4.90;99.90;;;;;;5018945;28;20032;-70
2024/03/06 03:03:01;;;;;;;15.40;10.25;;;4.90;99.90;;;;;;5019328;28;20026;-70
2024/03/06 03:05:26;;;;;;;22.48;11.20;;;4.90;99.90;;;;;;5019914;28;20370;-70
2024/03/06 03:07:52;;;;;;;15.95;9.90;;;4.90;99.90;;;;;;5018842;28;20026;-70
2024/03/06 03:10:18;;;;;;;15.40;9.80;;;4.90;99.90;;;;;;5010687;28;20085;-70
2024/03/06 03:12:44;;;;;;;16.50;9.00;;;4.90;99.90;;;;;;5011813;28;20041;-70
2024/03/06 03:15:10;;;;;;;16.58;9.07;;;4.90;99.90;;;;;;5010128;28;20351;-70
2024/03/06 03:17:36;;;;;;;12.73;7.68;;;4.90;99.90;;;;;;4998931;28;20033;-71
2024/03/06 03:20:11;;;;;;;12.80;8.02;;;4.90;99.90;;;;;;4996137;28;20034;-69
2024/03/06 03:22:41;;;;;;;11.15;7.05;;;4.90;99.90;;;;;;5010863;28;20594;-71
2024/03/06 03:25:14;;;;;;;12.38;7.22;;;4.90;99.90;;;;;;5010619;28;20120;-71
2024/03/06 03:27:40;;;;;;;8.52;6.30;;;4.90;99.90;;;;;;5010283;28;20084;-70
2024/03/06 03:30:10;;;;;;;9.30;6.43;;;4.90;99.90;;;;;;5001725;28;20053;-70
2024/03/06 03:32:37;;;;;;;10.02;6.75;;;4.90;99.90;;;;;;4990808;28;20034;-70
2024/03/06 03:35:05;;;;;;;8.60;5.45;;;4.90;99.90;;;;;;5004784;28;20040;-70
2024/03/06 03:37:31;;;;;;;11.30;6.65;;;4.90;99.90;;;;;;5006468;28;20419;-70
2024/03/06 03:39:56;;;;;;;9.80;6.57;;;5.00;99.90;;;;;;4991324;28;20023;-70
2024/03/06 03:42:22;;;;;;;10.07;6.57;;;5.00;99.90;;;;;;4991097;28;20364;-70
2024/03/06 03:44:48;;;;;;;9.82;6.72;;;4.90;99.90;;;;;;4991990;28;20041;-70
2024/03/06 03:47:13;;;;;;;10.27;6.35;;;5.00;99.90;;;;;;4994797;28;20038;-70
2024/03/06 03:49:39;;;;;;;9.70;6.30;;;5.00;99.90;;;;;;4993327;28;20033;-70
2024/03/06 03:52:04;;;;;;;11.02;6.50;;;5.00;99.90;;;;;;5011358;28;20022;-70
2024/03/06 03:54:30;;;;;;;12.27;6.55;;;5.00;99.90;;;;;;5007642;28;20135;-70
2024/03/06 03:56:56;;;;;;;9.48;5.97;;;5.00;99.90;;;;;;4995979;28;20031;-69
2024/03/06 03:59:21;;;;;;;8.30;5.60;;;5.00;99.90;;;;;;4990775;28;20072;-69
2024/03/06 04:01:47;;;;;;;10.52;4.82;;;5.00;99.90;;;;;;4991094;28;20160;-70
2024/03/06 04:04:13;;;;;;;6.70;4.65;;;5.00;99.90;;;;;;5001026;28;20033;-70
2024/03/06 04:06:39;;;;;;;7.75;4.90;;;5.00;99.90;;;;;;4992306;28;20030;-69
2024/03/06 04:09:04;;;;;;;6.68;4.50;;;5.10;99.90;;;;;;5009977;28;20037;-70
2024/03/06 04:11:33;;;;;;;8.80;4.32;;;5.10;99.90;;;;;;4990036;28;20028;-70
2024/03/06 04:13:59;;;;;;;7.30;4.38;;;5.00;99.90;;;;;;4998742;28;20025;-70
2024/03/06 04:16:24;;;;;;;7.78;4.55;;;5.00;99.90;;;;;;5009652;28;20446;-69
2024/03/06 04:18:50;;;;;;;6.95;4.07;;;5.00;99.90;;;;;;4993576;28;20018;-69
2024/03/06 04:21:16;;;;;;;9.10;4.60;;;5.00;99.90;;;;;;5010634;28;20121;-69
2024/03/06 04:23:44;;;;;;;6.55;4.05;;;5.00;99.90;;;;;;5009976;28;20033;-69
2024/03/06 04:26:10;;;;;;;5.53;4.30;;;5.00;99.90;;;;;;5000428;28;20486;-69
2024/03/06 04:28:35;;;;;;;7.80;4.47;;;5.00;99.90;;;;;;5010128;28;20034;-70
2024/03/06 04:31:01;;;;;;;8.32;4.72;;;4.90;99.90;;;;;;5009076;28;20033;-69
2024/03/06 04:33:26;;;;;;;6.88;4.53;;;4.90;99.90;;;;;;4994737;28;20460;-69
2024/03/06 04:35:52;;;;;;;7.00;4.20;;;4.90;99.90;;;;;;5013857;28;20040;-69
2024/03/06 04:38:18;;;;;;;8.68;5.03;;;4.90;99.90;;;;;;5014266;28;20022;-69
2024/03/06 04:40:44;;;;;;;8.48;4.35;;;4.90;99.90;;;;;;5012242;28;20033;-69
2024/03/06 04:43:10;;;;;;;7.10;5.20;;;4.90;99.90;;;;;;5006071;28;20030;-70
2024/03/06 04:45:36;;;;;;;7.07;4.80;;;4.90;99.90;;;;;;4998006;28;20030;-70
2024/03/06 04:48:02;;;;;;;6.75;4.80;;;4.90;99.90;;;;;;4986399;28;20352;-70
2024/03/06 04:50:27;;;;;;;7.97;4.75;;;4.90;99.90;;;;;;5010396;28;20042;-70
2024/03/06 04:52:53;;;;;;;10.57;5.20;;;4.90;99.90;;;;;;5003474;28;20029;-70
2024/03/06 04:55:22;;;;;;;11.13;5.30;;;4.90;99.90;;;;;;5011094;28;20049;-69
2024/03/06 04:57:48;;;;;;;11.40;5.78;;;4.90;99.90;;;;;;5013184;28;20076;-69
2024/03/06 05:00:14;;;;;;;6.28;4.88;;;4.90;99.90;;;;;;5009990;28;20030;-70
2024/03/06 05:02:41;;;;;;;9.00;4.90;;;4.90;99.90;;;;;;4993611;28;20026;-69
2024/03/06 05:05:10;;;;;;;7.32;5.18;;;4.90;99.90;;;;;;4993958;28;20049;-69
2024/03/06 05:07:36;;;;;;;7.43;5.20;;;4.90;99.90;;;;;;4994094;28;20061;-70
2024/03/06 05:10:02;;;;;;;14.77;5.57;;;4.90;99.90;;;;;;5005718;28;20117;-69
2024/03/06 05:12:28;;;;;;;12.40;5.03;;;4.90;99.90;;;;;;5004104;28;20473;-69
2024/03/06 05:14:54;;;;;;;7.68;5.30;;;4.90;99.90;;;;;;4999087;28;20478;-69
2024/03/06 05:17:21;;;;;;;10.40;5.68;;;4.80;99.90;;;;;;5006871;28;20037;-70
2024/03/06 05:19:48;;;;;;;12.18;6.40;;;4.90;99.90;;;;;;5013167;28;20169;-69
2024/03/06 05:22:15;;;;;;;12.95;5.70;;;4.90;99.90;;;;;;5003925;28;20031;-69
2024/03/06 05:24:42;;;;;;;11.20;5.63;;;4.90;99.90;;;;;;4992436;28;20162;-70
2024/03/06 05:27:08;;;;;;;8.75;5.43;;;4.90;99.90;;;;;;5003382;28;20088;-70
2024/03/06 05:29:34;;;;;;;8.82;5.20;;;4.90;99.90;;;;;;4999195;28;20049;-71
2024/03/06 05:31:59;;;;;;;14.07;6.25;;;4.90;99.90;;;;;;5016220;28;20494;-70
2024/03/06 05:34:25;;;;;;;9.82;5.65;;;4.90;99.90;;;;;;5019987;28;20100;-70
2024/03/06 05:36:50;;;;;;;13.80;6.07;;;4.90;99.90;;;;;;5024397;28;20099;-70
2024/03/06 05:39:17;;;;;;;10.82;5.90;;;4.90;99.90;;;;;;5005346;28;20026;-70
2024/03/06 05:41:43;;;;;;;9.43;6.15;;;5.00;99.90;;;;;;4996427;28;20041;-71
2024/03/06 05:44:10;;;;;;;10.98;6.13;;;5.00;99.90;;;;;;4995333;28;20022;-70
2024/03/06 05:46:36;;;;;;;9.10;5.57;;;4.90;99.90;;;;;;4993346;28;20113;-70
2024/03/06 05:49:02;;;;;;;10.90;6.00;;;4.90;99.90;;;;;;5008978;28;20482;-71
2024/03/06 05:51:27;;;;;;;9.18;5.95;;;4.90;99.90;;;;;;5012936;28;20029;-71
2024/03/06 05:53:53;;;;;;;11.60;6.88;;;4.90;99.90;;;;;;5012714;28;20045;-70
2024/03/06 05:56:19;;;;;;;9.43;6.35;;;4.90;99.90;;;;;;4996436;28;20026;-70
2024/03/06 05:58:49;;;;;;;11.18;6.72;;;4.90;99.90;;;;;;4995236;28;20033;-69
2024/03/06 06:01:21;;;;;;;10.23;6.43;;;4.90;99.90;;;;;;5012151;28;20029;-69
2024/03/06 06:03:48;;;;;;;11.57;6.65;;;4.90;99.90;;;;;;5013391;28;20026;-69
2024/03/06 06:06:20;;;;;;;12.60;6.50;;;4.90;99.90;;;;;;5005795;28;20125;-71
2024/03/06 06:08:46;;;;;;;10.40;6.57;;;4.90;99.90;;;;;;5012008;28;20034;-69
2024/03/06 06:11:12;;;;;;;9.90;6.50;;;4.90;99.90;;;;;;5011680;28;20041;-69
2024/03/06 06:13:39;;;;;;;11.30;6.88;;;4.90;99.90;;;;;;5011906;28;20100;-69
2024/03/06 06:16:05;;;;;;;10.75;7.18;;;5.00;99.90;;;;;;5012594;28;20029;-70
2024/03/06 06:18:31;;;;;;;18.17;7.60;;;5.00;99.90;;;;;;5005190;28;20034;-70
2024/03/06 06:20:58;;;;;;;13.35;6.97;;;5.00;99.90;;;;;;4992988;28;20026;-70
2024/03/06 06:23:23;;;;;;;12.25;6.50;;;5.00;99.90;;;;;;5006511;28;20034;-71
2024/03/06 06:25:49;;;;;;;14.77;7.22;;;5.00;99.90;;;;;;4999175;28;20085;-71
2024/03/06 06:28:14;;;;;;;14.05;6.95;;;4.90;99.90;;;;;;5011053;28;20052;-68
2024/03/06 06:30:40;;;;;;;12.05;6.97;;;4.90;99.90;;;;;;5010910;28;20017;-69
2024/03/06 06:33:06;;;;;;;13.45;7.53;;;4.90;99.90;;;;;;5012170;28;20045;-69
2024/03/06 06:35:33;;;;;;;13.75;7.82;;;4.90;99.90;;;;;;5010471;28;20041;-69
2024/03/06 06:38:02;;;;;;;15.02;7.78;;;5.00;99.90;;;;;;5011556;28;20022;-76
2024/03/06 06:40:28;;;;;;;13.90;7.07;;;5.00;99.90;;;;;;5011747;28;20022;-68
2024/03/06 06:42:54;;;;;;;15.95;8.05;;;5.10;99.90;;;;;;5012362;28;20444;-70
2024/03/06 06:45:23;;;;;;;13.30;6.97;;;5.10;99.90;;;;;;5008380;28;20038;-68
2024/03/06 06:47:51;;;;;;;11.30;7.55;;;5.10;99.90;;;;;;5004002;28;20026;-68
2024/03/06 06:50:18;;;;;;;13.00;7.38;;;5.10;99.90;;;;;;5008164;28;20068;-68
2024/03/06 06:52:43;;;;;;;11.88;7.22;;;5.10;99.90;;;;;;5000516;28;20029;-68
2024/03/06 06:55:11;;;;;;;11.00;7.13;;;5.10;99.90;;;;;;5002390;28;20054;-68
2024/03/06 06:57:38;;;;;;;10.55;7.70;;;5.10;99.90;;;;;;5008211;28;20261;-67
2024/03/06 07:00:16;;;;;;;14.07;7.63;;;5.10;99.90;;;;;;5010005;28;20053;-70
2024/03/06 07:02:42;;;;;;;15.02;7.30;;;5.10;99.90;;;;;;5008784;28;20018;-69
2024/03/06 07:05:10;;;;;;;16.88;7.70;;;5.20;99.90;;;;;;5019967;28;20417;-69
2024/03/06 07:07:36;;;;;;;14.73;8.18;;;5.20;99.90;;;;;;5000836;28;20395;-69
2024/03/06 07:10:03;;;;;;;12.70;7.47;;;5.20;99.90;;;;;;4995114;28;20140;-69
2024/03/06 07:12:28;;;;;;;15.77;7.60;;;5.30;99.90;;;;;;5010162;28;20033;-68
2024/03/06 07:14:54;;;;;;;16.83;9.00;;;5.20;99.90;;;;;;5008082;28;20034;-69
2024/03/06 07:17:20;;;;;;;13.77;7.50;;;5.20;99.90;;;;;;4999402;28;20321;-69
2024/03/06 07:19:46;;;;;;;13.43;8.68;;;5.20;99.90;;;;;;4994477;28;20490;-81
2024/03/06 07:22:11;;;;;;;12.00;7.53;;;5.30;99.90;;;;;;5012740;28;20018;-83
2024/03/06 07:24:37;;;;;;;17.80;8.18;;;5.30;99.90;;;;;;5014082;28;20573;-81
2024/03/06 07:27:03;;;;;;;13.45;6.95;;;5.30;99.90;;;;;;4996197;28;20030;-84
2024/03/06 07:29:28;;;;;;;10.30;6.72;;;5.50;99.90;;;;;;4983758;28;20037;-70
2024/03/06 07:31:54;;;;;;;13.10;7.22;;;5.60;99.90;;;;;;5002423;28;20379;-70
2024/03/06 07:34:22;;;;;;;11.40;6.38;;;5.50;99.90;;;;;;4998751;28;20026;-68
2024/03/06 07:36:49;;;;;;;14.65;7.45;;;5.60;99.90;;;;;;5011041;28;20030;-69
2024/03/06 07:39:19;;;;;;;10.55;6.82;;;5.60;99.90;;;;;;5010821;28;20080;-67
2024/03/06 07:41:45;;;;;;;15.90;7.07;;;5.50;99.90;;;;;;5010367;28;20018;-68
2024/03/06 07:44:11;;;;;;;11.35;7.20;;;5.50;99.90;;;;;;5011123;28;20022;-68
2024/03/06 07:46:36;;;;;;;9.05;6.82;;;5.40;99.90;;;;;;4998419;28;20045;-69
2024/03/06 07:49:03;;;;;;;13.15;7.07;;;5.50;99.90;;;;;;5000675;28;20034;-69
2024/03/06 07:51:32;;;;;;;12.13;7.53;;;5.40;99.90;;;;;;5013663;28;20014;-69
2024/03/06 07:53:58;;;;;;;18.05;7.57;;;5.40;99.90;;;;;;5009420;28;20442;-69
2024/03/06 07:56:28;;;;;;;11.13;7.32;;;5.50;99.90;;;;;;4997123;28;20026;-69
2024/03/06 07:58:53;;;;;;;;;;;5.50;99.90;;;;;;5006632;28;20113;-69
2024/03/06 08:01:20;;;;;;;13.48;6.95;;;5.50;99.90;;;;;;5005852;28;20028;-69
2024/03/06 08:03:46;;;;;;;13.10;7.70;;;5.50;99.90;;;;;;5006029;28;20026;-73
2024/03/06 08:06:15;;;;;;;13.75;7.93;;;5.40;99.90;;;;;;5010458;28;20023;-73
2024/03/06 08:08:41;;;;;;;11.70;7.45;;;5.40;99.90;;;;;;5003045;28;20057;-74
2024/03/06 08:11:10;;;;;;;12.95;7.30;;;5.50;99.90;;;;;;5010615;28;20052;-73
2024/03/06 08:13:36;;;;;;;14.07;7.47;;;5.60;99.90;;;;;;5006668;28;20105;-73
2024/03/06 08:16:02;;;;;;;14.25;7.88;;;5.70;99.90;;;;;;5003495;28;20109;-73
2024/03/06 08:18:28;;;;;;;13.50;8.00;;;5.70;99.90;;;;;;5008014;28;20515;-73
2024/03/06 08:20:53;;;;;;;14.38;7.40;;;5.70;99.90;;;;;;5013870;28;20111;-72
2024/03/06 08:23:19;;;;;;;11.77;6.20;;;5.70;99.90;;;;;;5001528;28;20026;-72
2024/03/06 08:25:45;;;;;;;9.68;5.82;;;5.90;99.90;;;;;;5010656;28;20424;-73
2024/03/06 08:28:10;;;;;;;10.50;6.43;;;5.90;99.90;;;;;;5012989;28;20504;-73
2024/03/06 08:30:36;;;;;;;10.45;5.78;;;5.90;99.90;;;;;;5012517;28;20361;-72
2024/03/06 08:33:02;;;;;;;9.60;5.38;;;6.00;99.90;;;;;;5013654;28;20030;-73
2024/03/06 08:35:27;;;;;;;9.55;5.38;;;6.00;99.90;;;;;;5012695;28;20032;-73
2024/03/06 08:37:53;;;;;;;10.10;5.68;;;6.10;99.90;;;;;;5014129;28;20425;-72
2024/03/06 08:40:19;;;;;;;11.60;6.18;;;6.10;99.90;;;;;;5010491;28;20049;-72
2024/03/06 08:42:47;;;;;;;10.18;5.90;;;6.10;99.90;;;;;;5013966;28;20049;-73
2024/03/06 08:45:12;;;;;;;7.65;5.65;;;6.10;99.90;;;;;;5012833;28;20026;-73
2024/03/06 08:47:38;;;;;;;9.40;5.70;;;6.20;99.90;;;;;;5013670;28;20037;-73
2024/03/06 08:50:04;;;;;;;8.68;5.60;;;6.20;99.90;;;;;;5013513;28;20018;-74
2024/03/06 08:52:33;;;;;;;9.88;5.70;;;6.20;99.90;;;;;;5014501;28;20061;-73
2024/03/06 08:54:58;;;;;;;9.38;6.00;;;6.30;99.90;;;;;;5020138;28;20484;-73
2024/03/06 08:57:26;;;;;;;8.93;6.05;;;6.20;99.90;;;;;;5013213;28;20096;-74
2024/03/06 08:59:52;;;;;;;12.13;6.95;;;6.20;99.90;;;;;;5013947;28;20391;-73
2024/03/06 09:02:22;;;;;;;13.75;6.47;;;6.30;99.90;;;;;;5014231;28;20034;-68
2024/03/06 09:04:47;;;;;;;12.68;6.40;;;6.30;99.90;;;;;;5006183;28;20018;-73
2024/03/06 09:07:14;;;;;;;8.00;5.97;;;6.30;99.90;;;;;;5014302;28;20044;-73
2024/03/06 09:09:40;;;;;;;12.18;5.93;;;6.30;99.90;;;;;;5012488;28;20084;-72
2024/03/06 09:12:14;;;;;;;11.18;6.10;;;6.30;99.90;;;;;;5013300;28;20463;-72
2024/03/06 09:14:41;;;;;;;8.85;6.70;;;6.30;99.90;;;;;;5012198;28;20026;-72
2024/03/06 09:17:09;;;;;;;11.30;6.63;;;6.30;99.90;;;;;;5011421;28;20080;-72
2024/03/06 09:19:35;;;;;;;13.55;7.47;;;6.30;99.90;;;;;;5011783;28;20037;-72
2024/03/06 09:22:02;;;;;;;12.82;7.10;;;6.40;99.90;;;;;;5012366;28;20026;-73
2024/03/06 09:24:28;;;;;;;12.63;7.60;;;6.40;99.90;;;;;;4994378;28;20368;-72
2024/03/06 09:26:54;;;;;;;12.88;8.63;;;6.40;99.90;;;;;;5013094;28;20030;-73
2024/03/06 09:29:20;;;;;;;8.50;6.65;;;6.40;99.90;;;;;;5014405;28;20026;-70
2024/03/06 09:31:50;;;;;;;12.05;7.43;;;6.30;99.90;;;;;;5009604;28;20046;-71
2024/03/06 09:34:16;;;;;;;12.00;7.53;;;6.20;99.90;;;;;;5011378;28;20404;-72
2024/03/06 09:36:45;;;;;;;10.23;7.22;;;6.20;99.90;;;;;;5011222;28;20128;-71
2024/03/06 09:39:20;;;;;;;11.23;7.33;;;6.30;99.90;;;;;;5011462;28;20026;-73
2024/03/06 09:41:50;;;;;;;12.88;7.85;;;6.30;99.90;;;;;;5009435;28;20383;-74
2024/03/06 09:44:17;;;;;;;11.05;7.05;;;6.30;99.90;;;;;;5012175;28;20022;-73
2024/03/06 09:46:48;;;;;;;11.90;8.38;;;6.20;99.90;;;;;;5011799;28;20029;-72
2024/03/06 09:49:23;;;;;;;15.10;8.18;;;6.20;99.90;;;;;;5002666;28;20366;-72
2024/03/06 09:51:49;;;;;;;12.93;8.20;;;6.20;99.90;;;;;;5010744;28;20361;-74
2024/03/06 09:54:16;;;;;;;13.75;9.30;;;6.20;99.90;;;;;;5011387;28;20497;-73
2024/03/06 09:56:43;;;;;;;12.82;8.68;;;6.30;99.90;;;;;;5011547;28;20029;-73
2024/03/06 09:59:10;;;;;;;15.02;9.00;;;6.30;99.90;;;;;;5012181;28;20037;-73
2024/03/06 10:01:40;;;;;;;13.77;10.20;;;6.20;99.90;;;;;;5010754;28;20026;-73
2024/03/06 10:04:26;;;;;;;15.50;11.23;;;6.20;99.90;;;;;;5012350;28;20033;-72
2024/03/06 10:06:57;;;;;;;15.05;10.55;;;6.20;99.90;;;;;;5000478;28;20065;-72
2024/03/06 10:09:24;;;;;;;18.98;10.98;;;6.20;99.90;;;;;;5010835;28;20084;-69
2024/03/06 10:11:50;;;;;;;17.27;11.40;;;6.20;99.90;;;;;;5004161;28;20025;-70
2024/03/06 10:14:16;;;;;;;18.48;11.52;;;6.10;99.90;;;;;;5011406;28;20425;-70
2024/03/06 10:16:57;;;;;;;15.20;12.27;;;6.10;99.90;;;;;;4998307;28;20030;-71
2024/03/06 10:19:27;;;;;;;18.45;12.38;;;6.30;99.90;;;;;;5016375;28;20054;-69
2024/03/06 10:21:53;;;;;;;18.67;12.32;;;6.30;99.90;;;;;;5011427;28;20029;-70
2024/03/06 10:24:20;;;;;;;18.05;12.80;;;6.30;99.90;;;;;;5009018;28;20026;-70
2024/03/06 10:26:46;;;;;;;17.65;12.95;;;6.30;99.90;;;;;;5011016;28;20026;-70
2024/03/06 10:29:17;;;;;;;18.05;13.23;;;6.40;99.90;;;;;;5010235;28;20108;-69
2024/03/06 10:31:48;;;;;;;18.08;13.25;;;6.40;99.90;;;;;;5010490;28;20022;-70
2024/03/06 10:34:13;;;;;;;17.50;13.32;;;6.40;99.90;;;;;;5011125;28;20025;-71
2024/03/06 10:36:39;;;;;;;16.95;13.57;;;6.40;99.90;;;;;;5010268;28;20493;-70
2024/03/06 10:39:07;;;;;;;24.55;15.50;;;6.40;99.90;;;;;;5005706;28;20100;-70
2024/03/06 10:41:34;;;;;;;22.48;14.70;;;6.40;99.90;;;;;;5000161;28;20035;-71
2024/03/06 10:44:01;;;;;;;19.42;14.02;;;6.40;99.90;;;;;;5005800;28;20031;-70
2024/03/06 10:46:28;;;;;;;19.50;13.30;;;6.60;99.90;;;;;;5008308;28;20164;-70
2024/03/06 10:48:58;;;;;;;20.73;16.17;;;6.60;99.90;;;;;;4993378;28;20038;-71
2024/03/06 10:51:26;;;;;;;20.88;16.33;;;6.60;99.90;;;;;;5010170;28;20057;-70
2024/03/06 10:53:53;;;;;;;21.58;16.48;;;6.70;99.90;;;;;;5009741;28;20495;-71
2024/03/06 10:56:21;;;;;;;18.30;15.23;;;6.70;99.90;;;;;;5009492;28;20025;-70
2024/03/06 10:58:50;;;;;;;21.25;16.15;;;6.70;99.90;;;;;;5009433;28;20057;-70
2024/03/06 11:01:17;;;;;;;24.17;17.67;;;6.70;99.90;;;;;;5010412;28;20017;-70
2024/03/06 11:03:43;;;;;;;24.25;18.02;;;6.70;99.90;;;;;;5011342;28;20040;-70
2024/03/06 11:06:08;;;;;;;26.00;19.27;;;6.60;99.90;;;;;;5010455;28;20029;-69
2024/03/06 11:08:34;;;;;;;29.88;20.65;;;6.70;99.90;;;;;;5010445;28;20021;-70
2024/03/06 11:11:20;;;;;;;27.55;20.95;;;6.60;99.90;;;;;;4989873;28;20482;-71
2024/03/06 11:13:47;;;;;;;25.77;20.35;;;6.60;99.90;;;;;;5006377;28;20034;-69
2024/03/06 11:16:13;;;;;;;30.38;20.60;;;6.50;99.90;;;;;;5010196;28;20022;-71
2024/03/06 11:18:38;;;;;;;29.10;20.83;;;6.60;99.90;;;;;;5010818;28;20499;-71
2024/03/06 11:21:04;;;;;;;30.65;21.60;;;6.40;99.90;;;;;;5010062;28;20071;-71
2024/03/06 11:23:33;;;;;;;33.40;22.73;;;6.40;99.90;;;;;;5014143;28;20100;-70
2024/03/06 11:26:06;;;;;;;30.38;21.85;;;6.40;99.90;;;;;;5019016;28;20163;-70
2024/03/06 11:28:34;;;;;;;33.70;24.17;;;6.50;99.90;;;;;;5019955;28;20033;-70
2024/03/06 11:31:04;;;;;;;35.20;24.80;;;6.50;99.90;;;;;;5024693;28;20030;-69
2024/03/06 11:33:44;;;;;;;34.92;25.90;;;6.40;99.90;;;;;;5021787;28;20044;-71
2024/03/06 11:36:18;;;;;;;32.33;24.08;;;6.30;99.90;;;;;;5014271;28;20045;-70
2024/03/06 11:39:06;;;;;;;36.20;25.20;;;6.30;99.90;;;;;;5014276;28;20057;-75
2024/03/06 11:41:47;;;;;;;36.60;25.55;;;6.30;99.90;;;;;;5009979;28;20117;-78
2024/03/06 11:44:15;;;;;;;39.72;26.08;;;6.30;99.90;;;;;;5017264;28;20014;-73
2024/03/06 11:46:57;;;;;;;40.08;26.67;;;6.30;99.90;;;;;;5014067;28;20018;-72
2024/03/06 11:49:25;;;;;;;35.70;26.65;;;6.20;99.90;;;;;;5014895;28;20033;-74
2024/03/06 11:51:55;;;;;;;36.10;26.23;;;6.20;99.90;;;;;;5014526;28;20446;-71
2024/03/06 11:54:29;;;;;;;43.15;28.17;;;6.10;99.90;;;;;;5013435;28;20046;-69
2024/03/06 11:56:57;;;;;;;39.80;28.17;;;6.20;99.90;;;;;;5012559;28;20489;-70
2024/03/06 11:59:27;;;;;;;45.13;29.35;;;6.20;99.90;;;;;;5013313;28;20378;-70
2024/03/06 12:01:53;;;;;;;40.90;28.42;;;6.20;99.90;;;;;;5015056;28;20046;-71
2024/03/06 12:04:20;;;;;;;44.22;31.00;;;6.20;99.90;;;;;;5012830;28;20022;-69
2024/03/06 12:06:46;;;;;;;45.95;29.48;;;6.20;99.90;;;;;;5014012;28;20081;-70
2024/03/06 12:09:12;;;;;;;43.33;30.35;;;6.10;99.90;;;;;;5013937;28;20030;-70
2024/03/06 12:11:37;;;;;;;44.95;30.55;;;6.10;99.90;;;;;;5013488;28;20052;-70
2024/03/06 12:14:03;;;;;;;44.05;30.40;;;6.20;99.90;;;;;;5013882;28;20084;-70
2024/03/06 12:16:29;;;;;;;43.30;30.02;;;6.20;99.90;;;;;;5012963;28;20026;-71
2024/03/06 12:18:58;;;;;;;46.55;31.17;;;6.20;99.90;;;;;;5014350;28;20018;-70
2024/03/06 12:21:34;;;;;;;46.75;31.38;;;6.20;99.90;;;;;;5012826;28;20030;-71
2024/03/06 12:24:09;;;;;;;44.10;29.75;;;6.30;99.90;;;;;;5014387;28;20060;-71
2024/03/06 12:26:36;;;;;;;47.70;31.15;;;6.40;99.90;;;;;;5012145;28;20018;-72
2024/03/06 12:29:10;;;;;;;39.47;26.92;;;6.40;99.90;;;;;;5014020;28;20034;-72
2024/03/06 12:31:37;;;;;;;39.70;28.65;;;6.40;99.90;;;;;;5011152;28;20516;-71
2024/03/06 12:34:04;;;;;;;43.17;28.58;;;6.40;99.90;;;;;;5013768;28;20028;-71
2024/03/06 12:36:31;;;;;;;39.97;28.42;;;6.40;99.90;;;;;;5012323;28;20036;-71
2024/03/06 12:39:00;;;;;;;39.03;27.42;;;6.30;99.90;;;;;;5012353;28;20034;-70
2024/03/06 12:41:26;;;;;;;40.50;28.57;;;6.30;99.90;;;;;;5010494;28;20037;-71
2024/03/06 12:43:52;;;;;;;40.22;27.55;;;6.30;99.90;;;;;;5013518;28;20022;-70
2024/03/06 12:46:19;;;;;;;42.90;28.77;;;6.30;99.90;;;;;;5011700;28;20064;-69
2024/03/06 12:48:45;;;;;;;40.58;29.52;;;6.40;99.90;;;;;;5013507;28;20057;-72